Ana Sayfa
METAR-TAF:

METAR-TAF

Havaalanları :

Sinop Havalimanı

Sinop, Türkiye

Enlem: 42-00-57N, Boylam: 035-03-59E, yükseklik: 7 m

Güncel hava durumu gözlemi

Rapor saat 14:50 UTC de 3 saat ve 27 dakika önce yapıldı.
Rüzgar doğu/güneydoğudan 8 kt
Sıcaklık 20°C
Nem 88%
Basınç 1020 hPa
Görüş mesafesi 10 km veya daha fazla
1500 ft yükseklikte parçalı bulutlu
3000 ft yükseklikte parçalı çok bulutlu

METAR: LTCM 161450Z 11008KT 9999 SCT015 BKN030 20/18 Q1020

Saat: 21:17 (18:17 UTC)

Tahmin

Rapor saat 13:40 UTC de 4 saat ve 37 dakika önce yapıldı.
Ayın 16'si saat 15 UTC'den ayın 16'si saat 24 UTC'ye kadar geçerli Tahmin
Rüzgar doğudan 7 kt
Görüş mesafesi 10 km veya daha fazla
1000 ft yükseklikte az bulutlu
3000 ft yükseklikte parçalı çok bulutlu

TAF: LTCM 161340Z 1615/1624 10007KT 9999 FEW010 BKN030

4.000'den fazla havaalanı için hava durumu gözlemleri ve tahminleri (METAR ve TAF raporları).

Kullanılabilir istasyonlar harita üzerinde sarı ve kırmızı noktalarla gösterilir.

İstasyonun adını görmek için fareyi noktanın üzerinde gezdirin.

Sonrasında hava gözlem ve tahminlerini görmek için tıklayın.

Haritayı değiştirmek için: yaklaştırmak için siyah artı işaretli yeşil düğmeye ve uzaklaştırmak için de eksi işaretli düğmeye hızla tıklayın; bitişik haritalar için yeşil okları kullanın.


METAR-TAF: